Time;durP1;ratioP1;P1;durP2;ratioP2;P2;SDS_P1;SDS_P2;PMS_P1;PMS_P2;Temp;Humidity;BMP_temperature;BMP_pressure;BME280_temperature;BME280_humidity;BME280_pressure;Samples;Min_cycle;Max_cycle;Signal;HPM_P1;HPM_P2
2022/07/13 00:00:29;;;;;;;4.17;3.53;;;;;;;;;;5051822;28;20445;-74
2022/07/13 00:02:56;;;;;;;6.40;3.80;;;;;;;;;;5051781;28;20440;-74
2022/07/13 00:05:23;;;;;;;5.43;4.07;;;;;;;;;;5052930;28;20471;-73
2022/07/13 00:07:52;;;;;;;5.83;3.37;;;;;;;;;;5053065;28;20441;-75
2022/07/13 00:10:19;;;;;;;6.33;4.17;;;;;;;;;;5061274;28;20446;-74
2022/07/13 00:12:46;;;;;;;4.60;4.20;;;;;;;;;;5074543;28;20972;-74
2022/07/13 00:15:13;;;;;;;5.67;3.50;;;;;;;;;;5073966;28;20804;-73
2022/07/13 00:17:40;;;;;;;6.17;3.60;;;;;;;;;;5063333;28;20433;-75
2022/07/13 00:20:08;;;;;;;5.67;4.20;;;;;;;;;;5061614;28;20511;-74
2022/07/13 00:22:35;;;;;;;5.07;3.93;;;;;;;;;;5051562;28;20606;-74
2022/07/13 00:25:04;;;;;;;5.73;3.70;;;;;;;;;;5051381;28;20465;-74
2022/07/13 00:27:31;;;;;;;4.77;4.27;;;;;;;;;;5052304;28;20524;-74
2022/07/13 00:29:58;;;;;;;5.43;3.53;;;;;;;;;;5052746;28;20547;-74
2022/07/13 00:32:26;;;;;;;4.53;3.60;;;;;;;;;;5059273;28;20484;-74
2022/07/13 00:34:53;;;;;;;3.93;3.10;;;;;;;;;;5073940;28;20444;-74
2022/07/13 00:37:20;;;;;;;4.07;3.60;;;;;;;;;;5074012;28;20451;-74
2022/07/13 00:39:47;;;;;;;4.13;3.27;;;;;;;;;;5060843;28;20450;-75
2022/07/13 00:42:16;;;;;;;7.37;4.00;;;;;;;;;;5062553;28;20436;-73
2022/07/13 00:44:43;;;;;;;3.63;3.33;;;;;;;;;;5051100;28;20862;-73
2022/07/13 00:47:10;;;;;;;4.23;3.50;;;;;;;;;;5051194;28;20947;-73
2022/07/13 00:49:38;;;;;;;3.40;3.10;;;;;;;;;;5051965;28;20437;-74
2022/07/13 00:52:05;;;;;;;3.77;3.23;;;;;;;;;;5052295;28;20487;-73
2022/07/13 00:54:32;;;;;;;4.93;3.50;;;;;;;;;;5058128;28;20578;-73
2022/07/13 00:57:01;;;;;;;5.43;3.20;;;;;;;;;;5073649;28;20948;-73
2022/07/13 00:59:29;;;;;;;3.40;3.10;;;;;;;;;;5073999;28;20997;-74
2022/07/13 01:01:57;;;;;;;3.23;2.93;;;;;;;;;;5060200;28;20429;-73
2022/07/13 01:04:24;;;;;;;4.20;3.00;;;;;;;;;;5061155;28;20433;-74
2022/07/13 01:06:53;;;;;;;4.47;3.77;;;;;;;;;;5050728;28;20461;-73
2022/07/13 01:09:20;;;;;;;5.23;3.27;;;;;;;;;;5050672;28;20445;-73
2022/07/13 01:11:48;;;;;;;6.73;3.40;;;;;;;;;;5051337;28;21005;-74
2022/07/13 01:14:15;;;;;;;3.20;2.90;;;;;;;;;;5052133;28;20445;-74
2022/07/13 01:16:43;;;;;;;3.03;2.73;;;;;;;;;;5057988;28;20837;-74
2022/07/13 01:19:12;;;;;;;4.27;3.20;;;;;;;;;;5073635;28;20444;-74
2022/07/13 01:21:41;;;;;;;3.37;3.07;;;;;;;;;;5073445;28;20440;-73
2022/07/13 01:24:10;;;;;;;5.60;3.27;;;;;;;;;;5058866;28;20433;-74
2022/07/13 01:26:38;;;;;;;3.67;3.30;;;;;;;;;;5060641;28;20953;-74
2022/07/13 01:29:05;;;;;;;3.87;3.07;;;;;;;;;;5070595;28;20452;-74
2022/07/13 01:31:35;;;;;;;6.30;3.33;;;;;;;;;;5070720;28;20527;-73
2022/07/13 01:34:03;;;;;;;3.37;3.00;;;;;;;;;;5071250;28;20495;-73
2022/07/13 01:36:30;;;;;;;4.90;3.20;;;;;;;;;;5071293;28;20563;-74
2022/07/13 01:38:58;;;;;;;4.30;3.03;;;;;;;;;;5070418;28;20821;-73
2022/07/13 01:41:28;;;;;;;5.63;3.60;;;;;;;;;;5072482;28;20436;-73
2022/07/13 01:43:56;;;;;;;4.17;3.73;;;;;;;;;;5071585;28;20444;-74
2022/07/13 01:46:24;;;;;;;4.00;3.07;;;;;;;;;;5059684;28;20539;-74
2022/07/13 01:48:51;;;;;;;4.33;3.93;;;;;;;;;;5058205;28;20434;-74
2022/07/13 01:51:18;;;;;;;3.87;3.40;;;;;;;;;;5050538;28;20445;-74
2022/07/13 01:53:46;;;;;;;4.60;3.80;;;;;;;;;;5050231;28;20481;-74
2022/07/13 01:56:13;;;;;;;4.50;3.73;;;;;;;;;;5049908;28;20978;-73
2022/07/13 01:58:42;;;;;;;5.03;3.70;;;;;;;;;;5051467;28;20527;-73
2022/07/13 02:01:09;;;;;;;5.37;3.50;;;;;;;;;;5058411;28;20794;-73
2022/07/13 02:03:36;;;;;;;4.90;3.43;;;;;;;;;;5073154;28;20436;-73
2022/07/13 02:06:05;;;;;;;3.90;3.50;;;;;;;;;;5072251;28;20456;-74
2022/07/13 02:08:32;;;;;;;9.10;4.00;;;;;;;;;;5061526;28;20424;-73
2022/07/13 02:10:59;;;;;;;4.73;4.23;;;;;;;;;;5065903;28;20765;-74
2022/07/13 02:13:26;;;;;;;5.23;3.60;;;;;;;;;;5073868;28;21054;-74
2022/07/13 02:15:55;;;;;;;4.87;3.50;;;;;;;;;;5073622;28;20460;-73
2022/07/13 02:18:22;;;;;;;5.10;3.40;;;;;;;;;;5075065;28;20968;-73
2022/07/13 02:20:50;;;;;;;4.70;3.23;;;;;;;;;;5075036;28;20444;-74
2022/07/13 02:23:17;;;;;;;6.70;3.87;;;;;;;;;;5074862;28;20847;-73
2022/07/13 02:25:44;;;;;;;3.80;3.40;;;;;;;;;;5076576;28;20472;-74
2022/07/13 02:28:11;;;;;;;3.77;3.30;;;;;;;;;;5076526;28;20536;-73
2022/07/13 02:30:38;;;;;;;5.33;3.70;;;;;;;;;;5065242;28;21917;-76
2022/07/13 02:33:07;;;;;;;6.17;4.17;;;;;;;;;;5065596;28;20476;-74
2022/07/13 02:35:35;;;;;;;3.80;3.40;;;;;;;;;;5053412;28;20480;-75
2022/07/13 02:38:02;;;;;;;4.63;3.53;;;;;;;;;;5053520;28;20812;-74
2022/07/13 02:40:29;;;;;;;4.00;3.43;;;;;;;;;;5054353;28;20795;-75
2022/07/13 02:42:56;;;;;;;4.17;3.77;;;;;;;;;;5054710;28;20449;-74
2022/07/13 02:45:23;;;;;;;5.50;4.10;;;;;;;;;;5060522;28;20479;-75
2022/07/13 02:47:51;;;;;;;4.90;3.70;;;;;;;;;;5076435;28;20527;-75
2022/07/13 02:50:19;;;;;;;9.57;4.07;;;;;;;;;;5076214;28;20543;-75
2022/07/13 02:52:46;;;;;;;4.40;3.20;;;;;;;;;;5061695;28;20476;-75
2022/07/13 02:55:14;;;;;;;4.73;3.80;;;;;;;;;;5063114;28;20456;-74
2022/07/13 02:57:41;;;;;;;4.23;3.43;;;;;;;;;;5073279;28;20514;-75
2022/07/13 03:00:09;;;;;;;4.50;3.40;;;;;;;;;;5074840;28;20447;-75
2022/07/13 03:02:36;;;;;;;7.50;5.23;;;;;;;;;;5077385;28;20872;-75
2022/07/13 03:05:04;;;;;;;3.80;3.40;;;;;;;;;;5075297;28;20456;-74
2022/07/13 03:07:33;;;;;;;6.03;3.37;;;;;;;;;;5074073;28;20502;-74
2022/07/13 03:10:00;;;;;;;4.20;3.43;;;;;;;;;;5075740;28;20948;-74
2022/07/13 03:12:28;;;;;;;3.70;3.33;;;;;;;;;;5075907;28;20440;-74
2022/07/13 03:14:55;;;;;;;4.23;3.00;;;;;;;;;;5062882;28;20452;-75
2022/07/13 03:17:22;;;;;;;4.20;3.20;;;;;;;;;;5063554;28;20435;-74
2022/07/13 03:19:49;;;;;;;5.13;3.30;;;;;;;;;;5052826;28;20805;-74
2022/07/13 03:22:16;;;;;;;3.90;3.13;;;;;;;;;;5052711;28;20453;-74
2022/07/13 03:24:45;;;;;;;3.70;3.40;;;;;;;;;;5053264;28;20436;-74
2022/07/13 03:27:12;;;;;;;4.40;3.20;;;;;;;;;;5054005;28;20445;-75
2022/07/13 03:29:39;;;;;;;4.00;3.20;;;;;;;;;;5058415;28;20448;-74
2022/07/13 03:32:07;;;;;;;3.27;3.00;;;;;;;;;;5075885;28;20448;-75
2022/07/13 03:34:34;;;;;;;3.73;3.30;;;;;;;;;;5075363;28;20511;-75
2022/07/13 03:37:01;;;;;;;5.97;3.37;;;;;;;;;;5062332;28;21052;-75
2022/07/13 03:39:28;;;;;;;3.60;3.00;;;;;;;;;;5065110;28;20433;-74
2022/07/13 03:41:57;;;;;;;4.07;3.67;;;;;;;;;;5071912;28;20437;-75
2022/07/13 03:44:24;;;;;;;4.10;2.97;;;;;;;;;;5072443;28;21226;-75
2022/07/13 03:46:51;;;;;;;4.10;3.60;;;;;;;;;;5073073;28;20816;-75
2022/07/13 03:49:18;;;;;;;4.80;3.57;;;;;;;;;;5073387;28;20947;-74
2022/07/13 03:51:46;;;;;;;4.60;2.93;;;;;;;;;;5072795;28;20445;-74
2022/07/13 03:54:14;;;;;;;4.30;3.10;;;;;;;;;;5075042;28;20488;-75
2022/07/13 03:56:41;;;;;;;3.53;3.23;;;;;;;;;;5074864;28;20969;-74
2022/07/13 03:59:09;;;;;;;5.20;3.80;;;;;;;;;;5062855;28;20431;-75
2022/07/13 04:01:37;;;;;;;3.00;2.70;;;;;;;;;;5060640;28;20425;-74
2022/07/13 04:04:05;;;;;;;5.63;3.27;;;;;;;;;;5052679;28;20448;-74
2022/07/13 04:06:32;;;;;;;7.53;3.00;;;;;;;;;;5051959;28;20462;-74
2022/07/13 04:08:59;;;;;;;4.23;2.57;;;;;;;;;;5052842;28;20433;-74
2022/07/13 04:11:27;;;;;;;3.43;3.13;;;;;;;;;;5053206;28;20433;-75
2022/07/13 04:13:54;;;;;;;3.67;3.10;;;;;;;;;;5054480;28;20554;-74
2022/07/13 04:16:22;;;;;;;3.80;2.93;;;;;;;;;;5074686;28;20502;-74
2022/07/13 04:18:49;;;;;;;3.23;2.93;;;;;;;;;;5074526;28;20794;-75
2022/07/13 04:21:17;;;;;;;3.60;2.50;;;;;;;;;;5062815;28;20436;-75
2022/07/13 04:23:44;;;;;;;5.73;2.60;;;;;;;;;;5060170;28;20432;-75
2022/07/13 04:26:11;;;;;;;3.90;2.87;;;;;;;;;;5070240;28;20543;-74
2022/07/13 04:28:38;;;;;;;3.30;3.00;;;;;;;;;;5071242;28;20444;-75
2022/07/13 04:31:06;;;;;;;3.00;2.70;;;;;;;;;;5071809;28;20436;-74
2022/07/13 04:33:34;;;;;;;3.23;2.87;;;;;;;;;;5072598;28;20487;-75
2022/07/13 04:36:01;;;;;;;3.47;2.60;;;;;;;;;;5071564;28;20566;-75
2022/07/13 04:38:29;;;;;;;3.17;2.70;;;;;;;;;;5074227;28;20438;-75
2022/07/13 04:40:56;;;;;;;3.33;3.03;;;;;;;;;;5074205;28;20480;-75
2022/07/13 04:43:23;;;;;;;3.80;3.00;;;;;;;;;;5062736;28;20448;-74
2022/07/13 04:45:50;;;;;;;5.70;3.27;;;;;;;;;;5059732;28;20456;-75
2022/07/13 04:48:18;;;;;;;3.60;2.87;;;;;;;;;;5069312;28;20447;-75
2022/07/13 04:50:46;;;;;;;3.10;2.80;;;;;;;;;;5071122;28;20497;-74
2022/07/13 04:53:13;;;;;;;6.00;3.70;;;;;;;;;;5071788;28;20479;-75
2022/07/13 04:55:41;;;;;;;3.47;2.50;;;;;;;;;;5072332;28;20460;-75
2022/07/13 04:58:08;;;;;;;3.03;2.70;;;;;;;;;;5071251;28;20445;-75
2022/07/13 05:00:35;;;;;;;5.50;2.90;;;;;;;;;;5073746;28;20439;-74
2022/07/13 05:03:03;;;;;;;3.63;2.70;;;;;;;;;;5074535;28;20935;-75
2022/07/13 05:05:32;;;;;;;2.80;2.60;;;;;;;;;;5062463;28;20456;-75
2022/07/13 05:08:01;;;;;;;4.27;2.90;;;;;;;;;;5063514;28;20440;-74
2022/07/13 05:10:28;;;;;;;3.50;3.20;;;;;;;;;;5069305;28;20960;-74
2022/07/13 05:12:55;;;;;;;3.13;2.80;;;;;;;;;;5070578;28;20448;-74
2022/07/13 05:15:23;;;;;;;3.57;2.83;;;;;;;;;;5071485;28;20578;-74
2022/07/13 05:17:50;;;;;;;3.37;3.10;;;;;;;;;;5072292;28;20436;-75
2022/07/13 05:20:17;;;;;;;4.03;3.07;;;;;;;;;;5070076;28;20498;-75
2022/07/13 05:22:45;;;;;;;3.60;3.00;;;;;;;;;;5073825;28;20443;-74
2022/07/13 05:25:13;;;;;;;3.20;2.90;;;;;;;;;;5073416;28;20973;-76
2022/07/13 05:27:40;;;;;;;3.93;3.00;;;;;;;;;;5062227;28;20507;-75
2022/07/13 05:30:08;;;;;;;5.03;2.93;;;;;;;;;;5059407;28;20455;-75
2022/07/13 05:32:35;;;;;;;3.10;2.77;;;;;;;;;;5069468;28;20436;-75
2022/07/13 05:35:03;;;;;;;5.07;3.30;;;;;;;;;;5070090;28;20579;-74
2022/07/13 05:37:30;;;;;;;3.63;3.23;;;;;;;;;;5071352;28;20960;-74
2022/07/13 05:39:57;;;;;;;4.60;3.03;;;;;;;;;;5071594;28;20797;-74
2022/07/13 05:42:27;;;;;;;6.10;3.20;;;;;;;;;;5071154;28;20538;-72
2022/07/13 05:44:54;;;;;;;4.70;3.13;;;;;;;;;;5077122;28;20472;-72
2022/07/13 05:47:21;;;;;;;4.87;3.30;;;;;;;;;;5077552;28;20446;-73
2022/07/13 05:49:48;;;;;;;5.20;3.10;;;;;;;;;;5066530;28;20435;-72
2022/07/13 05:52:15;;;;;;;3.30;3.00;;;;;;;;;;5063715;28;20428;-73
2022/07/13 05:54:43;;;;;;;4.80;3.10;;;;;;;;;;5055750;28;20842;-73
2022/07/13 05:57:10;;;;;;;4.60;3.03;;;;;;;;;;5054576;28;20437;-73
2022/07/13 05:59:38;;;;;;;4.80;3.37;;;;;;;;;;5054945;28;20444;-74
2022/07/13 06:02:06;;;;;;;4.50;3.17;;;;;;;;;;5055570;28;20523;-74
2022/07/13 06:04:33;;;;;;;4.80;3.40;;;;;;;;;;5055698;28;20543;-73
2022/07/13 06:07:00;;;;;;;3.30;3.00;;;;;;;;;;5076810;28;20440;-72
2022/07/13 06:09:27;;;;;;;3.00;2.60;;;;;;;;;;5077418;28;20446;-72
2022/07/13 06:11:54;;;;;;;3.60;2.70;;;;;;;;;;5066918;28;20875;-74
2022/07/13 06:14:21;;;;;;;4.23;2.93;;;;;;;;;;5066593;28;20504;-75
2022/07/13 06:16:50;;;;;;;5.60;2.83;;;;;;;;;;5071674;28;20454;-77
2022/07/13 06:19:17;;;;;;;3.53;3.20;;;;;;;;;;5074345;28;20446;-73
2022/07/13 06:21:44;;;;;;;5.20;3.00;;;;;;;;;;5073986;28;20440;-74
2022/07/13 06:24:12;;;;;;;3.30;2.90;;;;;;;;;;5075177;28;20844;-73
2022/07/13 06:26:39;;;;;;;3.60;3.00;;;;;;;;;;5074445;28;20513;-74
2022/07/13 06:29:06;;;;;;;3.63;3.10;;;;;;;;;;5076564;28;20494;-73
2022/07/13 06:31:34;;;;;;;5.20;3.30;;;;;;;;;;5076529;28;20428;-74
2022/07/13 06:34:02;;;;;;;7.70;3.53;;;;;;;;;;5068094;28;20912;-74
2022/07/13 06:36:29;;;;;;;4.00;2.97;;;;;;;;;;5063531;28;20464;-73
2022/07/13 06:38:56;;;;;;;6.10;2.70;;;;;;;;;;5069949;28;20898;-74
2022/07/13 06:41:24;;;;;;;4.17;2.70;;;;;;;;;;5074144;28;20467;-74
2022/07/13 06:43:51;;;;;;;5.33;3.23;;;;;;;;;;5073396;28;20872;-77
2022/07/13 06:46:18;;;;;;;4.67;2.50;;;;;;;;;;5074471;28;20889;-74
2022/07/13 06:48:45;;;;;;;3.70;2.50;;;;;;;;;;5074070;28;20459;-78
2022/07/13 06:51:14;;;;;;;3.00;2.47;;;;;;;;;;5071813;28;20561;-73
2022/07/13 06:53:41;;;;;;;2.77;2.53;;;;;;;;;;5062930;28;20790;-75
2022/07/13 06:56:08;;;;;;;3.80;2.40;;;;;;;;;;5065527;28;20964;-74
2022/07/13 06:58:37;;;;;;;5.73;2.50;;;;;;;;;;5073271;28;20439;-75
2022/07/13 07:01:04;;;;;;;2.60;2.40;;;;;;;;;;5073150;28;20459;-74
2022/07/13 07:03:31;;;;;;;4.33;2.73;;;;;;;;;;5074099;28;20441;-75
2022/07/13 07:05:59;;;;;;;5.70;2.93;;;;;;;;;;5074222;28;20452;-74
2022/07/13 07:08:27;;;;;;;5.33;2.60;;;;;;;;;;5081746;28;20470;-75
2022/07/13 07:10:55;;;;;;;5.23;2.57;;;;;;;;;;5096169;28;20781;-76
2022/07/13 07:13:22;;;;;;;3.43;3.00;;;;;;;;;;5096260;28;20458;-74
2022/07/13 07:15:49;;;;;;;4.60;2.30;;;;;;;;;;5066844;28;20981;-75
2022/07/13 07:18:16;;;;;;;3.43;2.00;;;;;;;;;;5065457;28;20464;-75
2022/07/13 07:20:44;;;;;;;4.03;2.00;;;;;;;;;;5073057;28;20468;-74
2022/07/13 07:23:12;;;;;;;5.83;2.40;;;;;;;;;;5072825;28;20436;-74
2022/07/13 07:25:40;;;;;;;5.17;2.90;;;;;;;;;;5073463;28;20479;-74
2022/07/13 07:28:09;;;;;;;3.80;3.07;;;;;;;;;;5073882;28;20531;-75
2022/07/13 07:30:36;;;;;;;3.73;2.40;;;;;;;;;;5073693;28;20429;-74
2022/07/13 07:33:04;;;;;;;7.00;2.43;;;;;;;;;;5075637;28;20447;-75
2022/07/13 07:35:32;;;;;;;4.90;2.63;;;;;;;;;;5075080;28;20484;-74
2022/07/13 07:37:59;;;;;;;4.83;3.10;;;;;;;;;;5065837;28;20432;-75
2022/07/13 07:40:26;;;;;;;4.87;2.87;;;;;;;;;;5063145;28;20429;-75
2022/07/13 07:42:55;;;;;;;4.87;3.30;;;;;;;;;;5071482;28;20440;-74
2022/07/13 07:45:22;;;;;;;4.80;2.97;;;;;;;;;;5072395;28;20468;-75
2022/07/13 07:47:49;;;;;;;3.47;2.50;;;;;;;;;;5073178;28;20436;-75
2022/07/13 07:50:16;;;;;;;5.33;2.87;;;;;;;;;;5073775;28;20455;-75
2022/07/13 07:52:43;;;;;;;4.40;3.27;;;;;;;;;;5072713;28;20458;-75
2022/07/13 07:55:11;;;;;;;6.50;3.00;;;;;;;;;;5074850;28;20571;-75
2022/07/13 07:57:45;;;;;;;4.37;2.90;;;;;;;;;;5074775;28;20475;-75
2022/07/13 08:00:14;;;;;;;4.37;2.83;;;;;;;;;;5066620;28;20523;-74
2022/07/13 08:02:41;;;;;;;5.43;2.87;;;;;;;;;;5064632;28;20437;-74
2022/07/13 08:05:09;;;;;;;5.37;3.00;;;;;;;;;;5070822;28;20456;-73
2022/07/13 08:07:41;;;;;;;4.20;2.90;;;;;;;;;;5070192;28;20527;-72
2022/07/13 08:10:08;;;;;;;2.63;2.43;;;;;;;;;;5072667;28;20476;-72
2022/07/13 08:12:36;;;;;;;7.30;3.33;;;;;;;;;;5073292;28;20539;-73
2022/07/13 08:15:03;;;;;;;2.70;2.50;;;;;;;;;;5072470;28;20494;-73
2022/07/13 08:17:32;;;;;;;3.80;2.63;;;;;;;;;;5074714;28;20523;-73
2022/07/13 08:19:59;;;;;;;2.40;2.20;;;;;;;;;;5074484;28;20440;-72
2022/07/13 08:22:26;;;;;;;3.50;2.70;;;;;;;;;;5064567;28;20791;-72
2022/07/13 08:24:53;;;;;;;2.73;2.43;;;;;;;;;;5063737;28;20512;-72
2022/07/13 08:27:21;;;;;;;5.23;2.73;;;;;;;;;;5054554;28;20849;-71
2022/07/13 08:29:48;;;;;;;3.80;2.90;;;;;;;;;;5052363;28;20445;-73
2022/07/13 08:32:16;;;;;;;5.10;3.20;;;;;;;;;;5051677;28;20449;-72
2022/07/13 08:40:08;;;;;;;2.77;2.47;;;;;;;;;;5074039;28;20431;-73
2022/07/13 08:42:35;;;;;;;2.90;2.60;;;;;;;;;;5074063;28;20501;-72
2022/07/13 08:45:03;;;;;;;2.77;2.57;;;;;;;;;;5062618;28;20535;-73
2022/07/13 08:47:30;;;;;;;3.90;2.97;;;;;;;;;;5063636;28;20440;-73
2022/07/13 08:50:02;;;;;;;4.00;2.50;;;;;;;;;;5069196;28;20497;-72
2022/07/13 08:52:30;;;;;;;4.40;2.80;;;;;;;;;;5071039;28;20480;-73
2022/07/13 08:54:57;;;;;;;5.50;3.37;;;;;;;;;;5071760;28;20579;-72
2022/07/13 08:57:24;;;;;;;4.57;3.33;;;;;;;;;;5072290;28;20519;-72
2022/07/13 08:59:52;;;;;;;2.63;2.43;;;;;;;;;;5071482;28;20463;-74
2022/07/13 09:08:13;;;;;;;4.00;3.10;;;;;;;;;;5059835;28;20922;-74
2022/07/13 09:10:56;;;;;;;4.07;2.87;;;;;;;;;;5061189;28;20458;-74
2022/07/13 09:13:39;;;;;;;3.43;2.83;;;;;;;;;;5049870;28;20472;-73
2022/07/13 09:16:14;;;;;;;3.10;2.47;;;;;;;;;;5049643;28;20485;-73
2022/07/13 09:18:42;;;;;;;4.73;2.60;;;;;;;;;;5051282;28;20441;-73
2022/07/13 09:21:09;;;;;;;5.40;3.10;;;;;;;;;;5052130;28;20444;-73
2022/07/13 09:23:37;;;;;;;3.07;2.77;;;;;;;;;;5062177;28;20460;-73
2022/07/13 09:26:05;;;;;;;3.70;2.97;;;;;;;;;;5073480;28;20491;-73
2022/07/13 09:28:42;;;;;;;7.07;3.00;;;;;;;;;;5072555;28;20527;-73
2022/07/13 09:31:10;;;;;;;3.83;2.33;;;;;;;;;;5060917;28;20531;-73
2022/07/13 09:33:38;;;;;;;3.20;2.63;;;;;;;;;;5060558;28;20526;-76
2022/07/13 09:36:10;;;;;;;3.23;2.53;;;;;;;;;;5050593;28;20546;-75
2022/07/13 09:38:39;;;;;;;2.87;2.57;;;;;;;;;;5050524;28;21008;-75
2022/07/13 09:41:21;;;;;;;3.80;2.93;;;;;;;;;;5050244;28;20437;-79
2022/07/13 09:46:49;;;;;;;2.93;2.40;;;;;;;;;;5067629;28;20460;-76
2022/07/13 09:49:17;;;;;;;6.13;2.97;;;;;;;;;;5073380;28;20450;-77
2022/07/13 09:51:45;;;;;;;7.30;2.73;;;;;;;;;;5067591;28;20456;-75
2022/07/13 09:54:14;;;;;;;4.93;2.70;;;;;;;;;;5061468;28;20433;-76
2022/07/13 09:56:45;;;;;;;4.17;2.37;;;;;;;;;;5064526;28;20482;-73
2022/07/13 09:59:12;;;;;;;4.87;2.40;;;;;;;;;;5071046;28;21047;-73
2022/07/13 10:01:39;;;;;;;6.13;2.63;;;;;;;;;;5070443;28;20918;-74
2022/07/13 10:04:08;;;;;;;4.90;2.80;;;;;;;;;;5071137;28;20446;-75
2022/07/13 10:06:35;;;;;;;3.53;1.90;;;;;;;;;;5071395;28;20883;-74
2022/07/13 10:09:03;;;;;;;5.20;3.10;;;;;;;;;;5072232;28;20466;-76
2022/07/13 10:11:32;;;;;;;3.13;2.40;;;;;;;;;;5073221;28;20444;-76
2022/07/13 10:13:59;;;;;;;6.40;2.77;;;;;;;;;;5068885;28;20525;-74
2022/07/13 10:16:29;;;;;;;10.23;3.03;;;;;;;;;;5058805;28;20480;-77
2022/07/13 10:18:57;;;;;;;2.77;2.03;;;;;;;;;;5057391;28;20425;-75
2022/07/13 10:21:28;;;;;;;8.07;2.40;;;;;;;;;;5050613;28;20445;-74
2022/07/13 10:23:56;;;;;;;3.30;2.17;;;;;;;;;;5050264;28;20451;-74
2022/07/13 10:26:24;;;;;;;4.33;2.70;;;;;;;;;;5050994;28;20463;-75
2022/07/13 10:29:06;;;;;;;4.10;2.40;;;;;;;;;;5051529;28;20451;-74
2022/07/13 10:31:36;;;;;;;3.70;2.50;;;;;;;;;;5069588;28;20451;-74
2022/07/13 10:34:03;;;;;;;6.70;2.50;;;;;;;;;;5065005;28;20995;-74
2022/07/13 10:36:45;;;;;;;3.30;2.40;;;;;;;;;;5065369;28;20566;-74
2022/07/13 10:39:12;;;;;;;3.30;2.40;;;;;;;;;;5054056;28;20532;-75
2022/07/13 10:41:54;;;;;;;5.77;2.80;;;;;;;;;;5053392;28;20451;-74
2022/07/13 10:44:37;;;;;;;6.80;2.90;;;;;;;;;;5053075;28;20443;-74
2022/07/13 10:47:06;;;;;;;3.83;2.73;;;;;;;;;;5053648;28;20441;-75
2022/07/13 10:49:45;;;;;;;8.67;2.60;;;;;;;;;;5062191;28;20582;-74
2022/07/13 10:52:27;;;;;;;5.30;2.27;;;;;;;;;;5074997;28;20483;-74
2022/07/13 10:55:11;;;;;;;3.23;2.23;;;;;;;;;;5074769;28;20904;-74
2022/07/13 10:57:39;;;;;;;6.10;2.70;;;;;;;;;;5063133;28;20476;-74
2022/07/13 11:00:16;;;;;;;7.73;2.60;;;;;;;;;;5065231;28;20804;-74
2022/07/13 11:02:47;;;;;;;3.50;2.40;;;;;;;;;;5073605;28;20440;-74
2022/07/13 11:05:14;;;;;;;4.30;2.67;;;;;;;;;;5072029;28;21054;-73
2022/07/13 11:07:42;;;;;;;3.37;2.50;;;;;;;;;;5073993;28;20448;-73
2022/07/13 11:10:18;;;;;;;4.43;2.53;;;;;;;;;;5073212;28;20444;-74
2022/07/13 11:13:01;;;;;;;5.20;2.50;;;;;;;;;;5074597;28;20547;-74
2022/07/13 11:15:43;;;;;;;3.13;2.17;;;;;;;;;;5074570;28;20969;-73
2022/07/13 11:18:27;;;;;;;2.80;2.43;;;;;;;;;;5068482;28;20441;-73
2022/07/13 11:20:57;;;;;;;2.60;2.40;;;;;;;;;;5061014;28;20433;-73
2022/07/13 11:26:08;;;;;;;2.43;2.23;;;;;;;;;;5071037;28;20851;-74
2022/07/13 11:28:38;;;;;;;3.80;2.97;;;;;;;;;;5071731;28;20464;-74
2022/07/13 11:31:05;;;;;;;4.30;2.33;;;;;;;;;;5072767;28;20441;-74
2022/07/13 11:33:33;;;;;;;3.00;2.07;;;;;;;;;;5073451;28;20535;-74
2022/07/13 11:36:02;;;;;;;2.87;2.17;;;;;;;;;;5054899;28;20473;-74
2022/07/13 11:38:36;;;;;;;5.10;2.63;;;;;;;;;;5054051;28;20445;-74
2022/07/13 11:41:04;;;;;;;4.33;2.37;;;;;;;;;;5061350;28;20996;-73
2022/07/13 11:43:31;;;;;;;6.57;2.50;;;;;;;;;;5062440;28;20781;-73
2022/07/13 11:45:59;;;;;;;3.53;2.30;;;;;;;;;;5069511;28;20449;-74
2022/07/13 11:48:33;;;;;;;2.70;2.00;;;;;;;;;;5072896;28;20440;-74
2022/07/13 11:51:08;;;;;;;2.40;2.10;;;;;;;;;;5072365;28;20444;-74
2022/07/13 11:53:35;;;;;;;2.43;1.87;;;;;;;;;;5072333;28;20451;-74
2022/07/13 11:56:05;;;;;;;5.17;2.10;;;;;;;;;;5072300;28;20490;-74
2022/07/13 11:58:33;;;;;;;5.10;1.83;;;;;;;;;;5074854;28;20538;-74
2022/07/13 12:01:00;;;;;;;4.93;1.90;;;;;;;;;;5074025;28;20444;-75
2022/07/13 12:03:29;;;;;;;3.57;2.20;;;;;;;;;;5067242;28;20503;-74
2022/07/13 12:06:00;;;;;;;2.23;1.97;;;;;;;;;;5063481;28;20961;-73
2022/07/13 12:08:29;;;;;;;2.37;2.17;;;;;;;;;;5056559;28;20463;-78
2022/07/13 12:10:57;;;;;;;2.30;1.97;;;;;;;;;;5051374;28;20441;-78
2022/07/13 12:13:24;;;;;;;1.80;1.70;;;;;;;;;;5051922;28;20448;-74
2022/07/13 12:15:52;;;;;;;3.40;1.80;;;;;;;;;;5052336;28;20819;-74
2022/07/13 12:18:19;;;;;;;2.63;2.40;;;;;;;;;;5052838;28;20483;-74
2022/07/13 12:20:46;;;;;;;3.13;2.10;;;;;;;;;;5071095;28;20470;-74
2022/07/13 12:23:14;;;;;;;5.20;1.90;;;;;;;;;;5073508;28;20443;-74
2022/07/13 12:25:42;;;;;;;3.30;1.93;;;;;;;;;;5068354;28;20463;-73
2022/07/13 12:28:10;;;;;;;2.43;2.13;;;;;;;;;;5062559;28;20519;-75
2022/07/13 12:30:39;;;;;;;2.70;2.00;;;;;;;;;;5065405;28;20529;-73
2022/07/13 12:33:07;;;;;;;4.20;2.17;;;;;;;;;;5072278;28;20531;-74
2022/07/13 12:35:36;;;;;;;3.70;2.20;;;;;;;;;;5071115;28;20483;-74
2022/07/13 12:38:08;;;;;;;2.77;2.17;;;;;;;;;;5072188;28;20432;-73
2022/07/13 12:40:39;;;;;;;6.27;1.93;;;;;;;;;;5071377;28;20451;-73
2022/07/13 12:43:16;;;;;;;2.70;2.03;;;;;;;;;;5073089;28;20539;-74
2022/07/13 12:45:44;;;;;;;3.43;1.83;;;;;;;;;;5073384;28;20463;-74
2022/07/13 12:48:13;;;;;;;3.50;2.20;;;;;;;;;;5065218;28;20437;-74
2022/07/13 12:50:41;;;;;;;2.67;2.00;;;;;;;;;;5060516;28;20466;-74
2022/07/13 12:53:08;;;;;;;5.37;2.00;;;;;;;;;;5055229;28;20441;-73
2022/07/13 12:55:50;;;;;;;2.47;1.80;;;;;;;;;;5051453;28;20467;-74
2022/07/13 12:58:19;;;;;;;2.73;2.03;;;;;;;;;;5049914;28;20452;-74
2022/07/13 13:00:46;;;;;;;4.67;2.00;;;;;;;;;;5043423;28;21171;-73
2022/07/13 13:03:14;;;;;;;3.30;2.20;;;;;;;;;;5050521;28;20440;-74
2022/07/13 13:05:41;;;;;;;4.63;2.30;;;;;;;;;;5072200;28;20475;-73
2022/07/13 13:08:08;;;;;;;3.00;2.20;;;;;;;;;;5073542;28;20451;-74
2022/07/13 13:10:35;;;;;;;6.10;2.00;;;;;;;;;;5065642;28;20471;-74
2022/07/13 13:13:03;;;;;;;3.13;2.17;;;;;;;;;;5060247;28;20436;-74
2022/07/13 13:15:32;;;;;;;3.50;2.30;;;;;;;;;;5054863;28;20461;-74
2022/07/13 13:17:59;;;;;;;2.80;2.37;;;;;;;;;;5051342;28;20437;-74
2022/07/13 13:20:26;;;;;;;6.33;2.70;;;;;;;;;;5050732;28;20818;-74
2022/07/13 13:22:53;;;;;;;2.47;1.90;;;;;;;;;;5051801;28;20472;-74
2022/07/13 13:25:21;;;;;;;3.63;1.73;;;;;;;;;;5051696;28;20456;-74
2022/07/13 13:27:48;;;;;;;2.63;1.93;;;;;;;;;;5070510;28;20547;-74
2022/07/13 13:32:57;;;;;;;3.27;1.97;;;;;;;;;;5063915;28;20437;-74
2022/07/13 13:35:25;;;;;;;1.83;1.60;;;;;;;;;;5058791;28;20965;-74
2022/07/13 13:37:52;;;;;;;3.00;1.67;;;;;;;;;;5067883;28;20476;-74
2022/07/13 13:40:19;;;;;;;2.10;1.83;;;;;;;;;;5071207;28;20462;-74
2022/07/13 13:42:46;;;;;;;4.30;1.57;;;;;;;;;;5070552;28;20444;-74
2022/07/13 13:45:14;;;;;;;2.30;1.57;;;;;;;;;;5071359;28;20973;-74
2022/07/13 13:47:41;;;;;;;3.50;1.80;;;;;;;;;;5071566;28;20454;-74
2022/07/13 13:50:10;;;;;;;2.50;1.83;;;;;;;;;;5072816;28;20466;-74
2022/07/13 13:52:37;;;;;;;2.00;1.47;;;;;;;;;;5064167;28;20471;-74
2022/07/13 13:55:05;;;;;;;3.33;1.90;;;;;;;;;;5059247;28;20459;-74
2022/07/13 13:57:32;;;;;;;2.23;1.67;;;;;;;;;;5067390;28;20483;-74
2022/07/13 13:59:59;;;;;;;2.27;1.50;;;;;;;;;;5070832;28;20480;-73
2022/07/13 14:02:28;;;;;;;2.87;1.70;;;;;;;;;;5070479;28;20439;-74
2022/07/13 14:04:55;;;;;;;4.90;1.50;;;;;;;;;;5072223;28;20463;-74
2022/07/13 14:07:23;;;;;;;1.83;1.67;;;;;;;;;;5075184;28;20944;-74
2022/07/13 14:09:50;;;;;;;1.77;1.60;;;;;;;;;;5076435;28;20448;-74
2022/07/13 14:12:18;;;;;;;3.20;1.63;;;;;;;;;;5076913;28;20861;-74
2022/07/13 14:14:45;;;;;;;4.57;1.90;;;;;;;;;;5067587;28;20429;-74
2022/07/13 14:17:12;;;;;;;4.80;1.70;;;;;;;;;;5065279;28;20468;-74
2022/07/13 14:19:45;;;;;;;6.37;2.10;;;;;;;;;;5071201;28;20462;-74
2022/07/13 14:22:13;;;;;;;3.60;1.80;;;;;;;;;;5074367;28;20900;-74
2022/07/13 14:24:41;;;;;;;2.50;1.73;;;;;;;;;;5073946;28;20440;-74
2022/07/13 14:27:08;;;;;;;1.90;1.70;;;;;;;;;;5074801;28;20442;-74
2022/07/13 14:29:35;;;;;;;3.57;1.87;;;;;;;;;;5074922;28;20444;-74
2022/07/13 14:32:03;;;;;;;4.23;1.80;;;;;;;;;;5076109;28;20460;-74
2022/07/13 14:34:30;;;;;;;3.73;1.73;;;;;;;;;;5076929;28;20929;-75
2022/07/13 14:36:59;;;;;;;4.07;1.93;;;;;;;;;;5066554;28;21015;-73
2022/07/13 14:39:26;;;;;;;3.63;1.70;;;;;;;;;;5063362;28;20782;-73
2022/07/13 14:41:55;;;;;;;3.30;1.90;;;;;;;;;;5070763;28;20440;-73
2022/07/13 14:44:22;;;;;;;2.30;2.10;;;;;;;;;;5074084;28;20447;-73
2022/07/13 14:46:49;;;;;;;3.33;2.33;;;;;;;;;;5073506;28;20841;-73
2022/07/13 14:49:16;;;;;;;3.67;2.13;;;;;;;;;;5074615;28;20775;-73
2022/07/13 14:51:44;;;;;;;4.23;2.50;;;;;;;;;;5074279;28;20454;-73
2022/07/13 14:54:11;;;;;;;2.77;2.33;;;;;;;;;;5075660;28;20446;-73
2022/07/13 14:56:38;;;;;;;2.17;1.97;;;;;;;;;;5076091;28;20480;-72
2022/07/13 14:59:07;;;;;;;4.73;2.20;;;;;;;;;;5067563;28;20433;-73
2022/07/13 15:01:35;;;;;;;2.60;2.00;;;;;;;;;;5061893;28;20482;-73
2022/07/13 15:04:03;;;;;;;3.30;2.13;;;;;;;;;;5056860;28;20449;-73
2022/07/13 15:06:30;;;;;;;6.53;2.10;;;;;;;;;;5053607;28;20475;-75
2022/07/13 15:08:57;;;;;;;2.63;2.27;;;;;;;;;;5051956;28;20459;-74